Home   Weather   Germany   Geretsried   Past weeks
Flag for Germany

Past Weather in Geretsried, Bavaria, Germany — Yesterday and Last 2 Weeks

Currently: 39 °F. Mostly cloudy. (Weather station: Oberpfaffenhofen, Germany). See more current weather

Past Weather in Geretsried — Graph

°F

Geretsried Temperature Yesterday

Maximum temperature yesterday: 57 °F (at 1:50 pm)
Minimum temperature yesterday: 32 °F (at 12:20 am)
Average temperature yesterday: 45 °F

High & Low Weather Summary for the Past Weeks

 TemperatureHumidityPressure
High66 °F (Feb 25, 1:20 pm)100% (Feb 18, 7:50 am)30.60 "Hg (Feb 18, 7:50 am)
Low21 °F (Mar 1, 4:50 am)28% (Feb 25, 12:50 pm)29.95 "Hg (Feb 18, 7:20 pm)
Average42 °F72%30.32 "Hg
* Reported Feb 18 4:20 am — Mar 5 4:20 am, Geretsried. Weather by CustomWeather, © 2021

Note: Actual official high and low records may vary slightly from our data, if they occured in-between our weather recording intervals... More about our weather records

Geretsried Weather History for the Previous 24 Hours

Scroll right to see more
 ConditionsComfort  
Time TempWeatherWind HumidityBarometerVisibility
4:20 am
Fri, Mar 5
41 °FMostly cloudy.12 mph87%30.01 "HgN/A
3:50 am41 °FMostly cloudy.12 mph87%30.01 "HgN/A
3:20 am41 °FOvercast.12 mph87%30.01 "HgN/A
2:50 am41 °FMostly cloudy.13 mph87%30.01 "HgN/A
2:20 am41 °FOvercast.12 mph87%30.01 "HgN/A
1:50 am41 °FOvercast.14 mph87%30.01 "HgN/A
1:20 am41 °FOvercast.14 mph87%30.01 "HgN/A
12:50 am39 °FMostly cloudy.10 mph93%30.01 "HgN/A
12:20 am39 °FOvercast.12 mph93%30.01 "HgN/A
11:50 pm
Thu, Mar 4
39 °FMostly cloudy.9 mph93%30.01 "HgN/A
11:20 pm39 °FMostly cloudy.10 mph93%30.01 "HgN/A
10:20 pm43 °FMostly cloudy.13 mph81%30.01 "HgN/A
9:50 pm46 °FOvercast.14 mph57%29.98 "HgN/A
9:20 pm45 °FMostly cloudy.8 mph57%29.98 "HgN/A
8:20 pm43 °FPassing clouds.8 mph57%29.98 "HgN/A
7:50 pm45 °FOvercast.7 mph53%30.01 "HgN/A
7:20 pm46 °FOvercast.7 mph50%30.01 "HgN/A
6:50 pm46 °FMostly cloudy.7 mph50%30.01 "HgN/A
6:20 pm48 °FClear.7 mph46%30.01 "Hg10 mi
5:50 pm50 °FSunny.8 mph43%30.01 "Hg10 mi
5:20 pm52 °FSunny.7 mph41%30.01 "Hg10 mi
4:50 pm54 °FSunny.10 mph33%30.01 "Hg10 mi
4:20 pm54 °FSunny.13 mph30%30.01 "Hg10 mi
3:50 pm54 °FSunny.16 mph30%30.04 "Hg10 mi
3:20 pm55 °FSunny.15 mph28%30.04 "Hg10 mi
2:50 pm57 °FPassing clouds.13 mph33%30.04 "HgN/A
2:20 pm55 °FSunny.13 mph38%30.04 "Hg10 mi
1:50 pm57 °FSunny.15 mph33%30.04 "Hg10 mi
1:20 pm55 °FPassing clouds.12 mph36%30.07 "HgN/A
12:50 pm55 °FSunny.10 mph38%30.07 "Hg10 mi
12:20 pm54 °FSunny.12 mph38%30.09 "Hg10 mi
11:50 am52 °FSunny.12 mph41%30.09 "Hg10 mi
11:20 am48 °FSunny.9 mph46%30.12 "Hg10 mi
10:50 am48 °FSunny.9 mph43%30.12 "Hg10 mi
10:20 am46 °FSunny.10 mph50%30.12 "Hg10 mi
9:50 am46 °FSunny.7 mph53%30.15 "Hg10 mi
9:20 am43 °FSunny.9 mph61%30.15 "Hg10 mi
8:50 am41 °FSunny.6 mph70%30.15 "Hg10 mi
8:20 am41 °FSunny.2 mph70%30.15 "Hg10 mi
7:50 am41 °FSunny.3 mph61%30.15 "Hg10 mi
7:20 am39 °FSunny.7 mph65%30.15 "Hg10 mi
6:50 am39 °FClear.7 mph65%30.18 "Hg10 mi
6:20 am39 °FOvercast.8 mph70%30.18 "HgN/A
5:50 am39 °FOvercast.6 mph65%30.18 "HgN/A
5:20 am39 °FOvercast.6 mph70%30.18 "HgN/A
Weather by CustomWeather, © 2021

See weather overview